Lincoln Park, Nevada
Current Conditions -  °F | °C
As of 5:55 PM on Monday 20 Oct 2014 (Local Time) from KMEV Reporting Station
Clear Clear  
Wind Chill: 63°   Ceiling: Unl
Heat Index: 63°   Visibility: 10mi
Dew Point: 30°   Wind: 17mph
Humidity: 30%   Direction: 170°S
Pressure: 29.9"   Gusts: 24mph
Location:  39.0813°N, 119.897°W
Report Text: KMEV 210055Z AUTO 17015G21KT 10SM CLR 17/M01 A2990 RMK AO2
Loading
Personal Weather Stations






























Interactive Weather Map
Tropical Storm Tracking
New forecast layout! Learn more

10-Day Weather Forecast

Advertisements
Track Severe Weather on mobile